sensor_id;sensor_type;location;lat;lon;timestamp;P1;durP1;ratioP1;P2;durP2;ratioP2
23362;SDS011;11853;48.080;11.960;2024-01-30T00:01:12;11.02;;;6.93;;
23362;SDS011;11853;48.080;11.960;2024-01-30T00:03:38;6.68;;;6.00;;
23362;SDS011;11853;48.080;11.960;2024-01-30T00:06:04;8.75;;;6.30;;
23362;SDS011;11853;48.080;11.960;2024-01-30T00:08:29;9.23;;;6.60;;
23362;SDS011;11853;48.080;11.960;2024-01-30T00:10:55;8.90;;;6.38;;
23362;SDS011;11853;48.080;11.960;2024-01-30T00:13:20;8.57;;;6.15;;
23362;SDS011;11853;48.080;11.960;2024-01-30T00:15:46;8.20;;;6.35;;
23362;SDS011;11853;48.080;11.960;2024-01-30T00:18:11;7.07;;;6.15;;
23362;SDS011;11853;48.080;11.960;2024-01-30T00:20:37;8.52;;;5.97;;
23362;SDS011;11853;48.080;11.960;2024-01-30T00:23:03;10.05;;;6.28;;
23362;SDS011;11853;48.080;11.960;2024-01-30T00:25:28;7.00;;;5.82;;
23362;SDS011;11853;48.080;11.960;2024-01-30T00:27:54;9.00;;;6.35;;
23362;SDS011;11853;48.080;11.960;2024-01-30T00:30:20;9.10;;;5.80;;
23362;SDS011;11853;48.080;11.960;2024-01-30T00:32:45;8.23;;;5.95;;
23362;SDS011;11853;48.080;11.960;2024-01-30T00:35:11;8.52;;;6.00;;
23362;SDS011;11853;48.080;11.960;2024-01-30T00:37:36;7.18;;;5.85;;
23362;SDS011;11853;48.080;11.960;2024-01-30T00:40:02;9.02;;;6.75;;
23362;SDS011;11853;48.080;11.960;2024-01-30T00:42:28;8.00;;;6.05;;
23362;SDS011;11853;48.080;11.960;2024-01-30T00:44:54;7.05;;;6.35;;
23362;SDS011;11853;48.080;11.960;2024-01-30T00:47:20;6.82;;;5.68;;
23362;SDS011;11853;48.080;11.960;2024-01-30T00:49:45;11.68;;;7.90;;
23362;SDS011;11853;48.080;11.960;2024-01-30T00:52:11;8.40;;;6.80;;
23362;SDS011;11853;48.080;11.960;2024-01-30T00:54:37;8.32;;;6.60;;
23362;SDS011;11853;48.080;11.960;2024-01-30T00:57:02;7.55;;;6.05;;
23362;SDS011;11853;48.080;11.960;2024-01-30T00:59:28;7.15;;;6.20;;
23362;SDS011;11853;48.080;11.960;2024-01-30T01:01:54;10.63;;;6.20;;
23362;SDS011;11853;48.080;11.960;2024-01-30T01:04:19;8.90;;;6.53;;
23362;SDS011;11853;48.080;11.960;2024-01-30T01:06:46;11.85;;;6.35;;
23362;SDS011;11853;48.080;11.960;2024-01-30T01:09:12;9.68;;;6.78;;
23362;SDS011;11853;48.080;11.960;2024-01-30T01:11:38;11.15;;;6.93;;
23362;SDS011;11853;48.080;11.960;2024-01-30T01:14:04;9.13;;;7.00;;
23362;SDS011;11853;48.080;11.960;2024-01-30T01:16:30;7.72;;;6.50;;
23362;SDS011;11853;48.080;11.960;2024-01-30T01:18:55;9.05;;;6.80;;
23362;SDS011;11853;48.080;11.960;2024-01-30T01:21:21;7.78;;;6.43;;
23362;SDS011;11853;48.080;11.960;2024-01-30T01:23:46;8.48;;;6.68;;
23362;SDS011;11853;48.080;11.960;2024-01-30T01:26:12;8.32;;;6.78;;
23362;SDS011;11853;48.080;11.960;2024-01-30T01:28:40;7.20;;;6.28;;
23362;SDS011;11853;48.080;11.960;2024-01-30T01:31:06;8.18;;;6.70;;
23362;SDS011;11853;48.080;11.960;2024-01-30T01:33:32;9.85;;;6.88;;
23362;SDS011;11853;48.080;11.960;2024-01-30T01:35:58;8.50;;;6.97;;
23362;SDS011;11853;48.080;11.960;2024-01-30T01:38:24;8.35;;;6.88;;
23362;SDS011;11853;48.080;11.960;2024-01-30T01:40:50;8.80;;;6.35;;
23362;SDS011;11853;48.080;11.960;2024-01-30T01:43:16;9.80;;;6.95;;
23362;SDS011;11853;48.080;11.960;2024-01-30T01:45:42;9.90;;;6.70;;
23362;SDS011;11853;48.080;11.960;2024-01-30T01:48:08;7.78;;;6.53;;
23362;SDS011;11853;48.080;11.960;2024-01-30T01:50:34;9.75;;;6.28;;
23362;SDS011;11853;48.080;11.960;2024-01-30T01:53:00;8.35;;;6.35;;
23362;SDS011;11853;48.080;11.960;2024-01-30T01:55:27;9.35;;;6.28;;
23362;SDS011;11853;48.080;11.960;2024-01-30T01:57:55;10.35;;;7.18;;
23362;SDS011;11853;48.080;11.960;2024-01-30T02:00:21;8.98;;;6.60;;
23362;SDS011;11853;48.080;11.960;2024-01-30T02:02:46;8.18;;;6.90;;
23362;SDS011;11853;48.080;11.960;2024-01-30T02:05:12;7.50;;;6.55;;
23362;SDS011;11853;48.080;11.960;2024-01-30T02:07:38;10.57;;;7.05;;
23362;SDS011;11853;48.080;11.960;2024-01-30T02:10:04;8.63;;;7.18;;
23362;SDS011;11853;48.080;11.960;2024-01-30T02:12:29;7.90;;;6.50;;
23362;SDS011;11853;48.080;11.960;2024-01-30T02:14:55;8.90;;;6.88;;
23362;SDS011;11853;48.080;11.960;2024-01-30T02:17:21;8.20;;;6.70;;
23362;SDS011;11853;48.080;11.960;2024-01-30T02:19:48;8.95;;;6.60;;
23362;SDS011;11853;48.080;11.960;2024-01-30T02:22:13;7.70;;;6.90;;
23362;SDS011;11853;48.080;11.960;2024-01-30T02:24:39;7.82;;;6.97;;
23362;SDS011;11853;48.080;11.960;2024-01-30T02:27:05;9.48;;;7.30;;
23362;SDS011;11853;48.080;11.960;2024-01-30T02:29:30;7.68;;;6.43;;
23362;SDS011;11853;48.080;11.960;2024-01-30T02:31:56;10.25;;;7.28;;
23362;SDS011;11853;48.080;11.960;2024-01-30T02:34:22;7.68;;;6.88;;
23362;SDS011;11853;48.080;11.960;2024-01-30T02:36:48;8.63;;;7.07;;
23362;SDS011;11853;48.080;11.960;2024-01-30T02:39:14;11.05;;;7.00;;
23362;SDS011;11853;48.080;11.960;2024-01-30T02:41:39;7.70;;;6.90;;
23362;SDS011;11853;48.080;11.960;2024-01-30T02:44:05;10.52;;;7.50;;
23362;SDS011;11853;48.080;11.960;2024-01-30T02:46:30;8.05;;;6.82;;
23362;SDS011;11853;48.080;11.960;2024-01-30T02:48:56;9.50;;;7.30;;
23362;SDS011;11853;48.080;11.960;2024-01-30T02:51:22;8.70;;;6.93;;
23362;SDS011;11853;48.080;11.960;2024-01-30T02:53:47;10.02;;;6.95;;
23362;SDS011;11853;48.080;11.960;2024-01-30T02:56:13;9.40;;;6.90;;
23362;SDS011;11853;48.080;11.960;2024-01-30T02:58:39;8.45;;;6.35;;
23362;SDS011;11853;48.080;11.960;2024-01-30T03:01:05;7.60;;;6.63;;
23362;SDS011;11853;48.080;11.960;2024-01-30T03:03:31;8.38;;;6.30;;
23362;SDS011;11853;48.080;11.960;2024-01-30T03:05:57;9.93;;;6.75;;
23362;SDS011;11853;48.080;11.960;2024-01-30T03:08:22;7.97;;;7.10;;
23362;SDS011;11853;48.080;11.960;2024-01-30T03:10:48;10.25;;;6.78;;
23362;SDS011;11853;48.080;11.960;2024-01-30T03:13:14;9.20;;;7.05;;
23362;SDS011;11853;48.080;11.960;2024-01-30T03:15:39;7.72;;;6.53;;
23362;SDS011;11853;48.080;11.960;2024-01-30T03:18:05;8.90;;;7.18;;
23362;SDS011;11853;48.080;11.960;2024-01-30T03:20:30;8.90;;;6.78;;
23362;SDS011;11853;48.080;11.960;2024-01-30T03:22:56;7.38;;;6.10;;
23362;SDS011;11853;48.080;11.960;2024-01-30T03:25:24;8.52;;;6.78;;
23362;SDS011;11853;48.080;11.960;2024-01-30T03:27:50;9.85;;;7.00;;
23362;SDS011;11853;48.080;11.960;2024-01-30T03:30:16;7.25;;;6.55;;
23362;SDS011;11853;48.080;11.960;2024-01-30T03:32:42;7.07;;;6.10;;
23362;SDS011;11853;48.080;11.960;2024-01-30T03:35:08;8.10;;;5.70;;
23362;SDS011;11853;48.080;11.960;2024-01-30T03:37:33;7.60;;;5.50;;
23362;SDS011;11853;48.080;11.960;2024-01-30T03:39:59;6.35;;;5.65;;
23362;SDS011;11853;48.080;11.960;2024-01-30T03:42:24;7.10;;;5.63;;
23362;SDS011;11853;48.080;11.960;2024-01-30T03:44:50;7.20;;;6.05;;
23362;SDS011;11853;48.080;11.960;2024-01-30T03:47:20;5.47;;;4.97;;
23362;SDS011;11853;48.080;11.960;2024-01-30T03:49:45;8.07;;;5.93;;
23362;SDS011;11853;48.080;11.960;2024-01-30T03:52:11;7.72;;;5.60;;
23362;SDS011;11853;48.080;11.960;2024-01-30T03:54:37;7.55;;;5.60;;
23362;SDS011;11853;48.080;11.960;2024-01-30T03:57:02;8.10;;;5.90;;
23362;SDS011;11853;48.080;11.960;2024-01-30T03:59:28;7.20;;;5.60;;
23362;SDS011;11853;48.080;11.960;2024-01-30T04:01:54;8.05;;;5.43;;
23362;SDS011;11853;48.080;11.960;2024-01-30T04:04:20;7.55;;;5.60;;
23362;SDS011;11853;48.080;11.960;2024-01-30T04:06:45;5.03;;;4.45;;
23362;SDS011;11853;48.080;11.960;2024-01-30T04:09:12;6.68;;;4.63;;
23362;SDS011;11853;48.080;11.960;2024-01-30T04:11:41;7.80;;;5.40;;
23362;SDS011;11853;48.080;11.960;2024-01-30T04:14:07;5.28;;;4.57;;
23362;SDS011;11853;48.080;11.960;2024-01-30T04:16:33;6.63;;;5.15;;
23362;SDS011;11853;48.080;11.960;2024-01-30T04:18:59;6.55;;;5.18;;
23362;SDS011;11853;48.080;11.960;2024-01-30T04:21:24;6.10;;;4.90;;
23362;SDS011;11853;48.080;11.960;2024-01-30T04:23:53;6.57;;;5.13;;
23362;SDS011;11853;48.080;11.960;2024-01-30T04:26:18;7.90;;;5.22;;
23362;SDS011;11853;48.080;11.960;2024-01-30T04:28:44;5.43;;;4.57;;
23362;SDS011;11853;48.080;11.960;2024-01-30T04:31:47;7.00;;;4.25;;
23362;SDS011;11853;48.080;11.960;2024-01-30T04:34:13;5.53;;;4.40;;
23362;SDS011;11853;48.080;11.960;2024-01-30T04:36:38;6.47;;;4.22;;
23362;SDS011;11853;48.080;11.960;2024-01-30T04:39:04;4.60;;;4.07;;
23362;SDS011;11853;48.080;11.960;2024-01-30T04:41:29;5.75;;;3.90;;
23362;SDS011;11853;48.080;11.960;2024-01-30T04:43:56;4.78;;;4.30;;
23362;SDS011;11853;48.080;11.960;2024-01-30T04:46:22;4.30;;;3.58;;
23362;SDS011;11853;48.080;11.960;2024-01-30T04:48:47;4.40;;;4.00;;
23362;SDS011;11853;48.080;11.960;2024-01-30T04:51:13;4.80;;;4.10;;
23362;SDS011;11853;48.080;11.960;2024-01-30T04:53:38;5.07;;;4.07;;
23362;SDS011;11853;48.080;11.960;2024-01-30T04:56:05;6.53;;;3.65;;
23362;SDS011;11853;48.080;11.960;2024-01-30T04:58:30;4.85;;;4.10;;
23362;SDS011;11853;48.080;11.960;2024-01-30T05:00:56;5.00;;;4.13;;
23362;SDS011;11853;48.080;11.960;2024-01-30T05:03:22;4.97;;;4.00;;
23362;SDS011;11853;48.080;11.960;2024-01-30T05:05:48;4.20;;;3.80;;
23362;SDS011;11853;48.080;11.960;2024-01-30T05:08:14;4.85;;;3.92;;
23362;SDS011;11853;48.080;11.960;2024-01-30T05:10:40;4.90;;;4.13;;
23362;SDS011;11853;48.080;11.960;2024-01-30T05:13:05;3.92;;;3.63;;
23362;SDS011;11853;48.080;11.960;2024-01-30T05:15:31;4.65;;;3.67;;
23362;SDS011;11853;48.080;11.960;2024-01-30T05:17:56;6.18;;;3.50;;
23362;SDS011;11853;48.080;11.960;2024-01-30T05:20:22;4.75;;;3.20;;
23362;SDS011;11853;48.080;11.960;2024-01-30T05:22:47;3.88;;;3.47;;
23362;SDS011;11853;48.080;11.960;2024-01-30T05:25:13;3.63;;;3.30;;
23362;SDS011;11853;48.080;11.960;2024-01-30T05:27:38;4.47;;;3.42;;
23362;SDS011;11853;48.080;11.960;2024-01-30T05:30:05;3.58;;;2.97;;
23362;SDS011;11853;48.080;11.960;2024-01-30T05:32:31;5.13;;;3.65;;
23362;SDS011;11853;48.080;11.960;2024-01-30T05:34:57;3.85;;;3.10;;
23362;SDS011;11853;48.080;11.960;2024-01-30T05:37:22;3.53;;;3.13;;
23362;SDS011;11853;48.080;11.960;2024-01-30T05:39:48;3.50;;;3.20;;
23362;SDS011;11853;48.080;11.960;2024-01-30T05:42:13;4.35;;;3.30;;
23362;SDS011;11853;48.080;11.960;2024-01-30T05:44:40;4.50;;;3.50;;
23362;SDS011;11853;48.080;11.960;2024-01-30T05:47:05;6.85;;;4.15;;
23362;SDS011;11853;48.080;11.960;2024-01-30T05:49:31;6.28;;;4.93;;
23362;SDS011;11853;48.080;11.960;2024-01-30T05:51:57;6.10;;;5.20;;
23362;SDS011;11853;48.080;11.960;2024-01-30T05:54:22;5.18;;;4.30;;
23362;SDS011;11853;48.080;11.960;2024-01-30T05:56:48;5.75;;;4.38;;
23362;SDS011;11853;48.080;11.960;2024-01-30T05:59:14;4.60;;;4.13;;
23362;SDS011;11853;48.080;11.960;2024-01-30T06:01:45;4.55;;;4.15;;
23362;SDS011;11853;48.080;11.960;2024-01-30T06:04:14;4.68;;;3.80;;
23362;SDS011;11853;48.080;11.960;2024-01-30T06:06:40;4.80;;;4.18;;
23362;SDS011;11853;48.080;11.960;2024-01-30T06:09:06;4.18;;;3.78;;
23362;SDS011;11853;48.080;11.960;2024-01-30T06:11:34;4.90;;;4.45;;
23362;SDS011;11853;48.080;11.960;2024-01-30T06:14:00;6.28;;;4.60;;
23362;SDS011;11853;48.080;11.960;2024-01-30T06:16:25;4.75;;;4.25;;
23362;SDS011;11853;48.080;11.960;2024-01-30T06:18:54;5.07;;;4.57;;
23362;SDS011;11853;48.080;11.960;2024-01-30T06:21:20;6.05;;;4.32;;
23362;SDS011;11853;48.080;11.960;2024-01-30T06:23:46;5.70;;;5.07;;
23362;SDS011;11853;48.080;11.960;2024-01-30T06:26:12;6.45;;;5.80;;
23362;SDS011;11853;48.080;11.960;2024-01-30T06:28:40;6.78;;;5.45;;
23362;SDS011;11853;48.080;11.960;2024-01-30T06:31:05;5.93;;;5.40;;
23362;SDS011;11853;48.080;11.960;2024-01-30T06:33:31;6.18;;;5.38;;
23362;SDS011;11853;48.080;11.960;2024-01-30T06:35:56;6.53;;;5.40;;
23362;SDS011;11853;48.080;11.960;2024-01-30T06:38:22;5.78;;;4.78;;
23362;SDS011;11853;48.080;11.960;2024-01-30T06:40:47;6.13;;;5.40;;
23362;SDS011;11853;48.080;11.960;2024-01-30T06:43:13;7.32;;;5.18;;
23362;SDS011;11853;48.080;11.960;2024-01-30T06:45:38;5.55;;;4.80;;
23362;SDS011;11853;48.080;11.960;2024-01-30T06:48:04;5.68;;;5.07;;
23362;SDS011;11853;48.080;11.960;2024-01-30T06:50:30;7.03;;;5.80;;
23362;SDS011;11853;48.080;11.960;2024-01-30T06:52:56;5.32;;;4.78;;
23362;SDS011;11853;48.080;11.960;2024-01-30T06:55:21;5.72;;;4.78;;
23362;SDS011;11853;48.080;11.960;2024-01-30T06:57:47;7.43;;;5.28;;
23362;SDS011;11853;48.080;11.960;2024-01-30T07:00:12;5.63;;;4.88;;
23362;SDS011;11853;48.080;11.960;2024-01-30T07:02:39;5.93;;;5.18;;
23362;SDS011;11853;48.080;11.960;2024-01-30T07:05:04;6.40;;;4.78;;
23362;SDS011;11853;48.080;11.960;2024-01-30T07:07:33;5.80;;;4.40;;
23362;SDS011;11853;48.080;11.960;2024-01-30T07:10:05;6.93;;;4.15;;
23362;SDS011;11853;48.080;11.960;2024-01-30T07:12:34;6.65;;;4.40;;
23362;SDS011;11853;48.080;11.960;2024-01-30T07:14:59;6.75;;;3.92;;
23362;SDS011;11853;48.080;11.960;2024-01-30T07:17:36;7.68;;;5.80;;
23362;SDS011;11853;48.080;11.960;2024-01-30T07:20:33;5.65;;;4.70;;
23362;SDS011;11853;48.080;11.960;2024-01-30T07:23:18;5.88;;;4.05;;
23362;SDS011;11853;48.080;11.960;2024-01-30T07:26:17;4.60;;;3.90;;
23362;SDS011;11853;48.080;11.960;2024-01-30T07:29:13;4.03;;;3.53;;
23362;SDS011;11853;48.080;11.960;2024-01-30T07:31:41;3.42;;;3.13;;
23362;SDS011;11853;48.080;11.960;2024-01-30T07:34:07;3.58;;;3.28;;
23362;SDS011;11853;48.080;11.960;2024-01-30T07:36:32;3.50;;;3.00;;
23362;SDS011;11853;48.080;11.960;2024-01-30T07:38:58;3.22;;;2.63;;
23362;SDS011;11853;48.080;11.960;2024-01-30T07:41:29;4.35;;;3.20;;
23362;SDS011;11853;48.080;11.960;2024-01-30T07:44:12;3.42;;;3.13;;
23362;SDS011;11853;48.080;11.960;2024-01-30T07:46:38;4.85;;;3.38;;
23362;SDS011;11853;48.080;11.960;2024-01-30T07:49:03;3.45;;;3.15;;
23362;SDS011;11853;48.080;11.960;2024-01-30T07:51:29;3.88;;;3.35;;
23362;SDS011;11853;48.080;11.960;2024-01-30T07:53:56;3.75;;;3.25;;
23362;SDS011;11853;48.080;11.960;2024-01-30T07:56:22;5.30;;;3.97;;
23362;SDS011;11853;48.080;11.960;2024-01-30T07:58:48;4.40;;;3.97;;
23362;SDS011;11853;48.080;11.960;2024-01-30T08:01:14;4.43;;;4.03;;
23362;SDS011;11853;48.080;11.960;2024-01-30T08:03:40;5.07;;;3.38;;
23362;SDS011;11853;48.080;11.960;2024-01-30T08:06:06;4.20;;;3.70;;
23362;SDS011;11853;48.080;11.960;2024-01-30T08:08:32;5.65;;;4.50;;
23362;SDS011;11853;48.080;11.960;2024-01-30T08:10:58;5.85;;;4.75;;
23362;SDS011;11853;48.080;11.960;2024-01-30T08:13:23;13.40;;;9.50;;
23362;SDS011;11853;48.080;11.960;2024-01-30T08:15:49;9.93;;;8.35;;
23362;SDS011;11853;48.080;11.960;2024-01-30T08:18:14;10.40;;;8.02;;
23362;SDS011;11853;48.080;11.960;2024-01-30T08:20:40;8.32;;;6.15;;
23362;SDS011;11853;48.080;11.960;2024-01-30T08:23:06;8.00;;;5.32;;
23362;SDS011;11853;48.080;11.960;2024-01-30T08:25:31;5.80;;;4.43;;
23362;SDS011;11853;48.080;11.960;2024-01-30T08:27:57;5.95;;;4.60;;
23362;SDS011;11853;48.080;11.960;2024-01-30T08:30:29;6.53;;;4.60;;
23362;SDS011;11853;48.080;11.960;2024-01-30T08:33:11;4.38;;;3.63;;
23362;SDS011;11853;48.080;11.960;2024-01-30T08:35:47;3.97;;;3.67;;
23362;SDS011;11853;48.080;11.960;2024-01-30T08:38:37;9.70;;;6.20;;
23362;SDS011;11853;48.080;11.960;2024-01-30T08:41:02;9.43;;;7.30;;
23362;SDS011;11853;48.080;11.960;2024-01-30T08:43:28;14.13;;;9.85;;
23362;SDS011;11853;48.080;11.960;2024-01-30T08:45:54;9.30;;;7.05;;
23362;SDS011;11853;48.080;11.960;2024-01-30T08:48:19;7.45;;;5.78;;
23362;SDS011;11853;48.080;11.960;2024-01-30T08:50:46;7.60;;;6.85;;
23362;SDS011;11853;48.080;11.960;2024-01-30T08:53:12;7.43;;;6.10;;
23362;SDS011;11853;48.080;11.960;2024-01-30T08:55:37;5.55;;;4.72;;
23362;SDS011;11853;48.080;11.960;2024-01-30T08:58:04;4.65;;;4.20;;
23362;SDS011;11853;48.080;11.960;2024-01-30T09:00:30;4.93;;;4.45;;
23362;SDS011;11853;48.080;11.960;2024-01-30T09:02:55;4.38;;;3.97;;
23362;SDS011;11853;48.080;11.960;2024-01-30T09:05:21;6.28;;;4.32;;
23362;SDS011;11853;48.080;11.960;2024-01-30T09:07:46;6.72;;;4.65;;
23362;SDS011;11853;48.080;11.960;2024-01-30T09:10:12;6.57;;;4.25;;
23362;SDS011;11853;48.080;11.960;2024-01-30T09:12:37;4.80;;;3.92;;
23362;SDS011;11853;48.080;11.960;2024-01-30T09:15:03;5.28;;;3.35;;
23362;SDS011;11853;48.080;11.960;2024-01-30T09:17:29;3.40;;;3.10;;
23362;SDS011;11853;48.080;11.960;2024-01-30T09:19:55;3.75;;;3.45;;
23362;SDS011;11853;48.080;11.960;2024-01-30T09:22:20;4.18;;;3.72;;
23362;SDS011;11853;48.080;11.960;2024-01-30T09:24:46;5.00;;;4.03;;
23362;SDS011;11853;48.080;11.960;2024-01-30T09:27:11;5.20;;;4.43;;
23362;SDS011;11853;48.080;11.960;2024-01-30T09:29:37;4.03;;;3.65;;
23362;SDS011;11853;48.080;11.960;2024-01-30T09:32:03;5.07;;;4.43;;
23362;SDS011;11853;48.080;11.960;2024-01-30T09:34:30;5.40;;;4.63;;
23362;SDS011;11853;48.080;11.960;2024-01-30T09:36:55;4.80;;;3.80;;
23362;SDS011;11853;48.080;11.960;2024-01-30T09:39:21;6.97;;;4.30;;
23362;SDS011;11853;48.080;11.960;2024-01-30T09:41:51;5.97;;;4.57;;
23362;SDS011;11853;48.080;11.960;2024-01-30T09:44:30;4.53;;;3.83;;
23362;SDS011;11853;48.080;11.960;2024-01-30T09:46:56;3.78;;;3.40;;
23362;SDS011;11853;48.080;11.960;2024-01-30T09:49:28;4.70;;;3.67;;
23362;SDS011;11853;48.080;11.960;2024-01-30T09:51:57;6.45;;;3.65;;
23362;SDS011;11853;48.080;11.960;2024-01-30T09:54:22;6.50;;;3.53;;
23362;SDS011;11853;48.080;11.960;2024-01-30T09:56:48;5.28;;;3.63;;
23362;SDS011;11853;48.080;11.960;2024-01-30T09:59:14;4.78;;;3.38;;
23362;SDS011;11853;48.080;11.960;2024-01-30T10:01:40;4.85;;;3.70;;
23362;SDS011;11853;48.080;11.960;2024-01-30T10:04:07;3.97;;;3.20;;
23362;SDS011;11853;48.080;11.960;2024-01-30T10:06:33;5.05;;;2.90;;
23362;SDS011;11853;48.080;11.960;2024-01-30T10:08:59;3.95;;;3.55;;
23362;SDS011;11853;48.080;11.960;2024-01-30T10:11:24;6.75;;;3.67;;
23362;SDS011;11853;48.080;11.960;2024-01-30T10:13:50;4.05;;;3.65;;
23362;SDS011;11853;48.080;11.960;2024-01-30T10:16:16;4.50;;;3.58;;
23362;SDS011;11853;48.080;11.960;2024-01-30T10:18:42;3.92;;;3.55;;
23362;SDS011;11853;48.080;11.960;2024-01-30T10:21:08;3.72;;;3.42;;
23362;SDS011;11853;48.080;11.960;2024-01-30T10:23:35;4.22;;;3.83;;
23362;SDS011;11853;48.080;11.960;2024-01-30T10:26:02;5.65;;;3.80;;
23362;SDS011;11853;48.080;11.960;2024-01-30T10:28:29;6.63;;;5.15;;
23362;SDS011;11853;48.080;11.960;2024-01-30T10:30:59;5.03;;;4.18;;
23362;SDS011;11853;48.080;11.960;2024-01-30T10:33:26;4.65;;;3.85;;
23362;SDS011;11853;48.080;11.960;2024-01-30T10:35:54;5.55;;;3.90;;
23362;SDS011;11853;48.080;11.960;2024-01-30T10:38:25;3.85;;;3.42;;
23362;SDS011;11853;48.080;11.960;2024-01-30T10:40:56;5.55;;;3.67;;
23362;SDS011;11853;48.080;11.960;2024-01-30T10:43:22;4.70;;;3.75;;
23362;SDS011;11853;48.080;11.960;2024-01-30T10:45:53;5.45;;;3.97;;
23362;SDS011;11853;48.080;11.960;2024-01-30T10:48:22;3.00;;;2.70;;
23362;SDS011;11853;48.080;11.960;2024-01-30T10:50:54;5.70;;;2.80;;
23362;SDS011;11853;48.080;11.960;2024-01-30T10:53:22;3.08;;;2.60;;
23362;SDS011;11853;48.080;11.960;2024-01-30T10:55:48;3.05;;;2.42;;
23362;SDS011;11853;48.080;11.960;2024-01-30T10:58:16;3.58;;;2.10;;
23362;SDS011;11853;48.080;11.960;2024-01-30T11:00:43;2.40;;;2.20;;
23362;SDS011;11853;48.080;11.960;2024-01-30T11:03:09;1.98;;;1.77;;
23362;SDS011;11853;48.080;11.960;2024-01-30T11:05:35;3.22;;;1.83;;
23362;SDS011;11853;48.080;11.960;2024-01-30T11:08:14;1.88;;;1.77;;
23362;SDS011;11853;48.080;11.960;2024-01-30T11:10:48;4.05;;;1.30;;
23362;SDS011;11853;48.080;11.960;2024-01-30T11:13:15;1.30;;;1.20;;
23362;SDS011;11853;48.080;11.960;2024-01-30T11:15:40;3.63;;;1.30;;
23362;SDS011;11853;48.080;11.960;2024-01-30T11:18:06;2.70;;;2.50;;
23362;SDS011;11853;48.080;11.960;2024-01-30T11:20:32;4.95;;;1.70;;
23362;SDS011;11853;48.080;11.960;2024-01-30T11:23:00;1.15;;;1.13;;
23362;SDS011;11853;48.080;11.960;2024-01-30T11:25:32;2.05;;;1.55;;
23362;SDS011;11853;48.080;11.960;2024-01-30T11:27:58;4.95;;;2.28;;
23362;SDS011;11853;48.080;11.960;2024-01-30T11:30:27;2.35;;;2.08;;
23362;SDS011;11853;48.080;11.960;2024-01-30T11:33:07;2.38;;;2.17;;
23362;SDS011;11853;48.080;11.960;2024-01-30T11:35:36;3.58;;;2.40;;
23362;SDS011;11853;48.080;11.960;2024-01-30T11:38:06;3.08;;;1.90;;
23362;SDS011;11853;48.080;11.960;2024-01-30T11:40:34;3.15;;;2.17;;
23362;SDS011;11853;48.080;11.960;2024-01-30T11:43:00;2.63;;;2.42;;
23362;SDS011;11853;48.080;11.960;2024-01-30T11:45:27;2.35;;;2.10;;
23362;SDS011;11853;48.080;11.960;2024-01-30T11:47:53;3.47;;;2.55;;
23362;SDS011;11853;48.080;11.960;2024-01-30T11:50:19;3.83;;;2.30;;
23362;SDS011;11853;48.080;11.960;2024-01-30T11:52:45;2.50;;;2.30;;
23362;SDS011;11853;48.080;11.960;2024-01-30T11:55:11;2.40;;;2.20;;
23362;SDS011;11853;48.080;11.960;2024-01-30T11:57:38;3.63;;;2.10;;
23362;SDS011;11853;48.080;11.960;2024-01-30T12:00:04;2.80;;;2.22;;
23362;SDS011;11853;48.080;11.960;2024-01-30T12:02:35;3.28;;;2.35;;
23362;SDS011;11853;48.080;11.960;2024-01-30T12:05:07;1.98;;;1.88;;
23362;SDS011;11853;48.080;11.960;2024-01-30T12:07:33;3.00;;;1.98;;
23362;SDS011;11853;48.080;11.960;2024-01-30T12:09:59;2.53;;;1.70;;
23362;SDS011;11853;48.080;11.960;2024-01-30T12:12:25;2.75;;;1.65;;
23362;SDS011;11853;48.080;11.960;2024-01-30T12:14:52;2.28;;;1.75;;
23362;SDS011;11853;48.080;11.960;2024-01-30T12:20:03;2.65;;;2.20;;
23362;SDS011;11853;48.080;11.960;2024-01-30T12:22:32;2.75;;;1.80;;
23362;SDS011;11853;48.080;11.960;2024-01-30T12:25:04;3.45;;;1.90;;
23362;SDS011;11853;48.080;11.960;2024-01-30T12:27:30;2.28;;;1.80;;
23362;SDS011;11853;48.080;11.960;2024-01-30T12:29:56;2.28;;;2.08;;
23362;SDS011;11853;48.080;11.960;2024-01-30T12:32:25;2.10;;;1.80;;
23362;SDS011;11853;48.080;11.960;2024-01-30T12:34:55;1.80;;;1.70;;
23362;SDS011;11853;48.080;11.960;2024-01-30T12:37:22;2.08;;;1.88;;
23362;SDS011;11853;48.080;11.960;2024-01-30T12:39:50;1.90;;;1.77;;
23362;SDS011;11853;48.080;11.960;2024-01-30T12:42:19;2.95;;;2.03;;
23362;SDS011;11853;48.080;11.960;2024-01-30T12:44:45;2.22;;;1.88;;
23362;SDS011;11853;48.080;11.960;2024-01-30T12:47:11;2.00;;;1.90;;
23362;SDS011;11853;48.080;11.960;2024-01-30T12:49:37;2.30;;;2.10;;
23362;SDS011;11853;48.080;11.960;2024-01-30T12:52:02;3.38;;;2.50;;
23362;SDS011;11853;48.080;11.960;2024-01-30T12:54:28;2.38;;;2.15;;
23362;SDS011;11853;48.080;11.960;2024-01-30T12:56:54;4.95;;;2.53;;
23362;SDS011;11853;48.080;11.960;2024-01-30T12:59:19;3.40;;;2.25;;
23362;SDS011;11853;48.080;11.960;2024-01-30T13:01:45;2.50;;;2.08;;
23362;SDS011;11853;48.080;11.960;2024-01-30T13:04:11;3.13;;;1.95;;
23362;SDS011;11853;48.080;11.960;2024-01-30T13:06:36;3.67;;;2.03;;
23362;SDS011;11853;48.080;11.960;2024-01-30T13:09:02;2.00;;;1.80;;
23362;SDS011;11853;48.080;11.960;2024-01-30T13:11:31;3.88;;;2.08;;
23362;SDS011;11853;48.080;11.960;2024-01-30T13:13:57;2.30;;;2.08;;
23362;SDS011;11853;48.080;11.960;2024-01-30T13:16:23;2.13;;;1.80;;
23362;SDS011;11853;48.080;11.960;2024-01-30T13:18:48;3.03;;;1.92;;
23362;SDS011;11853;48.080;11.960;2024-01-30T13:21:15;2.42;;;2.22;;
23362;SDS011;11853;48.080;11.960;2024-01-30T13:23:40;2.80;;;2.20;;
23362;SDS011;11853;48.080;11.960;2024-01-30T13:26:07;3.47;;;2.38;;
23362;SDS011;11853;48.080;11.960;2024-01-30T13:28:32;3.17;;;2.50;;
23362;SDS011;11853;48.080;11.960;2024-01-30T13:31:01;3.25;;;2.50;;
23362;SDS011;11853;48.080;11.960;2024-01-30T13:33:34;2.38;;;2.17;;
23362;SDS011;11853;48.080;11.960;2024-01-30T13:36:10;3.05;;;2.22;;
23362;SDS011;11853;48.080;11.960;2024-01-30T13:38:38;3.30;;;2.80;;
23362;SDS011;11853;48.080;11.960;2024-01-30T13:41:04;5.38;;;3.20;;
23362;SDS011;11853;48.080;11.960;2024-01-30T13:43:31;2.42;;;2.22;;
23362;SDS011;11853;48.080;11.960;2024-01-30T13:45:57;3.78;;;2.83;;
23362;SDS011;11853;48.080;11.960;2024-01-30T13:48:23;3.05;;;2.60;;
23362;SDS011;11853;48.080;11.960;2024-01-30T13:50:51;4.25;;;2.92;;
23362;SDS011;11853;48.080;11.960;2024-01-30T13:53:56;2.53;;;2.33;;
23362;SDS011;11853;48.080;11.960;2024-01-30T13:56:22;2.95;;;2.30;;
23362;SDS011;11853;48.080;11.960;2024-01-30T13:58:52;2.25;;;2.08;;
23362;SDS011;11853;48.080;11.960;2024-01-30T14:01:18;2.20;;;2.00;;
23362;SDS011;11853;48.080;11.960;2024-01-30T14:03:43;2.80;;;2.30;;
23362;SDS011;11853;48.080;11.960;2024-01-30T14:06:10;2.60;;;2.40;;
23362;SDS011;11853;48.080;11.960;2024-01-30T14:09:11;3.28;;;2.50;;
23362;SDS011;11853;48.080;11.960;2024-01-30T14:11:50;3.65;;;2.63;;
23362;SDS011;11853;48.080;11.960;2024-01-30T14:14:16;2.88;;;2.60;;
23362;SDS011;11853;48.080;11.960;2024-01-30T14:16:41;3.20;;;2.47;;
23362;SDS011;11853;48.080;11.960;2024-01-30T14:19:07;3.35;;;2.40;;
23362;SDS011;11853;48.080;11.960;2024-01-30T14:21:33;3.90;;;2.47;;
23362;SDS011;11853;48.080;11.960;2024-01-30T14:23:58;3.10;;;2.58;;
23362;SDS011;11853;48.080;11.960;2024-01-30T14:26:24;2.55;;;2.35;;
23362;SDS011;11853;48.080;11.960;2024-01-30T14:28:49;3.17;;;2.38;;
23362;SDS011;11853;48.080;11.960;2024-01-30T14:31:15;3.28;;;2.58;;
23362;SDS011;11853;48.080;11.960;2024-01-30T14:33:43;2.50;;;2.30;;
23362;SDS011;11853;48.080;11.960;2024-01-30T14:36:09;4.25;;;2.47;;